Duckwater, Nevada Weather observations

Data are for 10 minute period ending at time listed.
 Day   Time   Solar   Ave.   Ave.  Ave.  Vector  Max.   Baro.   Total    
  of    of     Rad.   Air    Rel.  Wind   Wind   Wind  Press.  Precip.   
Year   Day            Temp.  Hum.  Speed  Dir.   Gust                    
2014   (PST)   w/m2    F      %     mph   deg.    mph    mb.     in.    
-----------------------------------------------------------------------
 293    8:10    362   57.8    40    0.0   296     0.6   999.0   0.00  
 293    8:20    391   60.5    36    0.1   296     0.8   999.0   0.00  
 293    8:30    419   61.9    34    2.2   148     3.7   999.0   0.00  
 293    8:40    445   62.8    32    3.5   152     5.9   999.0   0.00  
 293    8:50    470   63.3    32    4.7   156     7.5   999.0   0.00  
 293    9:00    494   63.9    31    5.7   143     8.5   999.0   0.00  
 293    9:10    517   64.7    30    6.5   141     8.8   999.0   0.00  
 293    9:20    538   66.3    29    7.8   147    11.6   999.0   0.00  
 293    9:30    558   67.0    28   10.7   138    15.3   999.0   0.00  
 293    9:40    578   67.3    28   11.7   139    16.8   999.0   0.00  
 293    9:50    595   68.0    27   12.1   137    15.9   999.0   0.00  
 293   10:00    612   68.4    27   13.0   134    18.5   999.0   0.00  
 293   10:10    625   69.0    26   11.5   142    18.7   999.0   0.00  
 293   10:20    638   69.5    26   12.8   141    17.7   999.0   0.00  
 293   10:30    650   70.2    25   13.0   139    18.3   999.0   0.00  
 293   10:40    661   70.7    25   11.9   143    18.0   999.0   0.00  
 293   10:50    667   71.1    25   12.8   144    19.6   999.0   0.00  
 293   11:00    672   71.7    24   13.4   144    20.8   999.0   0.00  
 293   11:10    676   72.3    24   14.6   163    23.4   999.0   0.00  
 293   11:20    679   72.8    24   14.8   164    21.3   999.0   0.00  
 293   11:30    680   72.7    24   14.8   181    22.9   999.0   0.00  
 293   11:40    680   72.9    24   15.2   172    22.2   999.0   0.00  
 293   11:50    678   73.5    24   15.3   173    26.7   999.0   0.00  
 293   12:00    673   73.1    24   17.1   173    24.4   999.0   0.00  
 293   12:10    669   73.9    23   16.1   181    25.3   999.0   0.00  
 293   12:20    664   74.1    23   15.6   174    27.1   999.0   0.00  
 293   12:30    655   74.1    23   15.6   178    25.2   999.0   0.00  
 293   12:40    645   74.2    22   16.4   165    26.2   999.0   0.00  
 293   12:50    634   74.5    22   16.2   174    22.6   999.0   0.00  
 293   13:00    620   74.9    22   15.3   171    24.5   999.0   0.00  
 293   13:10    604   75.2    21   15.7   162    25.7   999.0   0.00  
 293   13:20    590   74.8    21   15.7   181    25.1   999.0   0.00  
 293   13:30    556   75.0    21   16.8   169    25.4   999.0   0.00  
 293   13:40    559   74.9    22   15.1   163    21.9   999.0   0.00  
 293   13:50    495   75.0    21   15.3   161    24.5   999.0   0.00  
 293   14:00    505   75.2    21   14.2   166    22.4   999.0   0.00  
 293   14:10    404   75.3    21   13.6   156    21.3   999.0   0.00  
 293   14:20    300   74.0    22   12.7   154    20.8   999.0   0.00  
 293   14:30    348   73.6    22   14.6   148    22.4   999.0   0.00  
 293   14:40    422   74.8    20   16.1   166    24.0   999.0   0.00  
 293   14:50    397   75.1    20   15.8   168    22.9   999.0   0.00  
 293   15:00    355   74.8    20   16.9   163    24.3   999.0   0.00  
 293   15:10    187   73.8    21   14.2   163    21.1   999.0   0.00  
 293   15:20     60   72.2    22   15.8   168    23.9   999.0   0.00  
 293   15:30     81   71.1    23   13.5   175    19.2   999.0   0.00  
 293   15:40    160   72.3    21   14.1   171    19.9   999.0   0.00  
 293   15:50     51   71.3    22   16.1   170    23.2   999.0   0.00  
 293   16:00     96   70.8    23   14.2   173    20.8   999.0   0.00  
 293   16:10     31   70.1    24   11.7   170    18.9   999.0   0.00  
 293   16:20     20   69.2    24   11.7   169    18.5   999.0   0.00  
 293   16:30      9   68.9    24   11.4   175    18.5   999.0   0.00  
 293   16:40     11   68.3    25    9.8   180    13.3   999.0   0.00  
 293   16:50      5   67.3    26    8.7   184    12.7   999.0   0.00  
 293   17:00      5   67.1    26    9.2   184    17.0   999.0   0.00  
 293   17:10      1   67.3    27   11.4   182    16.6   999.0   0.00  
 293   17:20      0   67.8    26   12.2   185    17.8   999.0   0.00  
 293   17:30      0   67.8    26   12.9   192    22.2   999.0   0.00  
 293   17:40      0   67.6    26   12.5   192    18.1   999.0   0.00  
 293   17:50      0   67.1    27   11.8   191    18.0   999.0   0.00  
 293   18:00      0   66.9    27   12.3   192    18.9   999.0   0.00  
 293   18:10      0   66.7    28   10.9   185    18.1   999.0   0.00  
 293   18:20      0   66.5    28   11.8   184    18.6   999.0   0.00  
 293   18:30      0   66.5    28   12.7   186    20.4   999.0   0.00  
 293   18:40      0   66.7    28   13.9   183    21.0   999.0   0.00  
 293   18:50      0   66.3    28   11.9   170    17.1   999.0   0.00  
 293   19:00      0   64.1    30   11.2   153    17.5   999.0   0.00  
 293   19:10      0   63.2    31   10.8   158    15.7   999.0   0.00  
 293   19:20      0   63.2    31    9.8   161    16.2   999.0   0.00  
 293   19:30      0   63.3    31    9.5   167    14.3   999.0   0.00  
 293   19:40      0   62.9    32    7.8   164    10.7   999.0   0.00  
 293   19:50      0   62.3    33    7.7   159    10.8   999.0   0.00  
 293   20:00      0   62.0    33    8.1   155    12.6   999.0   0.00  
 293   20:10      0   62.0    33    8.2   149    12.6   999.0   0.00  
 293   20:20      0   61.6    34    8.4   155    13.4   999.0   0.00  
 293   20:30      0   61.1    34    7.4   162    11.0   999.0   0.00  
 293   20:40      0   60.8    35    7.2   161    10.2   999.0   0.00  
 293   20:50      0   60.9    35    6.8   153    10.7   999.0   0.00  
 293   21:00      0   61.8    33    7.8   137    11.8   999.0   0.00  
 293   21:10      0   61.8    33    8.2   127    14.0   999.0   0.00  
 293   21:20      0   61.4    34    5.5   129     8.3   999.0   0.00  
 293   21:30      0   60.3    35    6.7   114    10.2   999.0   0.00  
 293   21:40      0   59.4    37    6.9   117    10.6   999.0   0.00  
 293   21:50      0   58.9    38    6.5   134     9.5   999.0   0.00  
 293   22:00      0   58.6    38    5.6   125     8.6   999.0   0.00  
 293   22:10      0   58.3    38    5.9   128     9.1   999.0   0.00  
 293   22:20      0   58.2    38    4.1   150     9.1   999.0   0.00  
 293   22:30      0   56.7    41    3.5   156     8.2   999.0   0.00  
 293   22:40      0   56.1    42    5.2   148     8.3   999.0   0.00  
 293   22:50      0   55.6    43    6.0   143     8.8   999.0   0.00  
 293   23:00      0   55.0    44    5.6   147     8.2   999.0   0.00  
 293   23:10      0   53.4    47    3.6   190     6.5   999.0   0.00  
 293   23:20      0   53.9    46    5.7   156     8.6   999.0   0.00  
 293   23:30      0   55.5    43    7.1   146    14.9   999.0   0.00  
 293   23:40      0   58.0    39    9.7   132    14.4   999.0   0.00  
 293   23:50      0   58.6    38   10.4   136    15.2   999.0   0.00  
 294    0:00      0   59.1    38   10.5   131    14.4   999.0   0.00  
 294    0:10      0   58.6    38   10.5   126    15.3   999.0   0.00  
 294    0:20      0   58.2    39    9.2   131    12.9   999.0   0.00  
 294    0:30      0   55.3    44    5.9   153    12.4   999.0   0.00  
 294    0:40      0   55.9    42    7.8   129    12.1   999.0   0.00  
 294    0:50      0   56.8    41    9.0   121    13.5   999.0   0.00  
 294    1:00      0   55.9    42    6.2   154    11.0   999.0   0.00  
 294    1:10      0   53.1    47    3.8   127     6.9   999.0   0.00  
 294    1:20      0   50.6    51    2.3   143     5.5   999.0   0.00  
 294    1:30      0   55.1    43    6.3   107    10.6   999.0   0.00  
 294    1:40      0   55.2    43    4.5   128     9.3   999.0   0.00  
 294    1:50      0   55.5    42    6.4   104     9.3   999.0   0.00  
 294    2:00      0   56.7    40    7.7   109    13.2   999.0   0.00  
 294    2:10      0   56.9    39    8.4   114    13.9   999.0   0.00  
 294    2:20      0   56.9    39    8.1   121    12.7   999.0   0.00  
 294    2:30      0   56.8    39    8.4   124    13.0   999.0   0.00  
 294    2:40      0   55.9    40    6.8   142    13.5   999.0   0.00  
 294    2:50      0   54.3    43    5.8   146    12.9   999.0   0.00  
 294    3:00      0   51.8    49    2.8   278     8.1   999.0   0.00  
 294    3:10      0   49.7    52    2.7   334     5.6   999.0   0.00  
 294    3:20      0   51.2    50    1.8    38     4.1   999.0   0.00  
 294    3:30      0   52.7    46    3.7    83     5.4   999.0   0.00  
 294    3:40      0   51.9    47    4.4    79     6.4   999.0   0.00  
 294    3:50      0   49.6    51    2.7   137     6.2   999.0   0.00  
 294    4:00      0   50.6    50    1.9   334     4.0   999.0   0.00  
 294    4:10      0   49.1    53    1.2   204     4.7   999.0   0.00  
 294    4:20      0   46.7    56    1.0   183     3.9   999.0   0.00  
 294    4:30      0   43.7    62    2.3   205     8.0   999.0   0.00  
 294    4:40      0   42.1    67    3.1     9     4.4   999.0   0.00  
 294    4:50      0   44.6    62    3.1    32     6.4   999.0   0.00  
 294    5:00      0   41.6    66    3.6   287     8.8   999.0   0.00  
 294    5:10      0   44.8    61    7.1     7    15.7   999.0   0.00  
 294    5:20      0   49.8    48    9.1     9    14.2   999.0   0.00  
 294    5:30      0   50.3    44    8.3     8    13.0   999.0   0.00  
 294    5:40      0   49.7    44    8.7     6    12.6   999.0   0.00  
 294    5:50      0   48.9    45    7.7     8    12.1   999.0   0.00  
 294    6:00      3   48.7    45    8.2    10    12.2   999.0   0.00  
 294    6:10      6   48.3    45    8.0     4    11.8   999.0   0.00  
 294    6:20      8   46.8    48    8.0   354    12.6   999.0   0.00  
 294    6:30     48   45.2    51    8.4   350    13.4   999.0   0.00  
 294    6:40     82   45.7    51    9.1   355    13.2   999.0   0.00  
 294    6:50    118   47.0    50    8.8   352    12.9   999.0   0.00  
 294    7:00    147   48.0    49    8.3   351    11.1   999.0   0.00  
 294    7:10    177   48.6    49    7.9   355    13.0   999.0   0.00  
 294    7:20    209   49.2    48    8.4   347    12.8   999.0   0.00  
 294    7:30    240   49.8    47    9.7   349    13.5   999.0   0.00  
 294    7:40    271   50.9    46    8.8   355    14.0   999.0   0.00  
 294    7:50    302   52.1    42   10.9   352    15.6   999.0   0.00  
 294    8:00    332   53.0    40    9.6   358    16.0   999.0   0.00  

Return to Duckwater graphs page.


Western Regional Climate Center,wrcc@dri.edu